sensor_id;sensor_type;location;lat;lon;timestamp;temperature;humidity
28767;DHT22;15921;52.034;20.650;2023-08-07T00:00:12;15.00;99.90
28767;DHT22;15921;52.034;20.650;2023-08-07T00:02:38;15.00;99.90
28767;DHT22;15921;52.034;20.650;2023-08-07T00:05:05;15.00;99.90
28767;DHT22;15921;52.034;20.650;2023-08-07T00:07:30;15.10;99.90
28767;DHT22;15921;52.034;20.650;2023-08-07T00:09:56;15.10;99.90
28767;DHT22;15921;52.034;20.650;2023-08-07T00:12:22;15.10;99.90
28767;DHT22;15921;52.034;20.650;2023-08-07T00:14:50;15.10;99.90
28767;DHT22;15921;52.034;20.650;2023-08-07T00:17:16;15.20;99.90
28767;DHT22;15921;52.034;20.650;2023-08-07T00:19:42;15.10;99.90
28767;DHT22;15921;52.034;20.650;2023-08-07T00:22:08;15.10;99.90
28767;DHT22;15921;52.034;20.650;2023-08-07T00:24:33;15.10;99.90
28767;DHT22;15921;52.034;20.650;2023-08-07T00:26:59;15.10;99.90
28767;DHT22;15921;52.034;20.650;2023-08-07T00:29:25;15.10;99.90
28767;DHT22;15921;52.034;20.650;2023-08-07T00:31:50;15.20;99.90
28767;DHT22;15921;52.034;20.650;2023-08-07T00:34:16;15.20;99.90
28767;DHT22;15921;52.034;20.650;2023-08-07T00:36:42;15.20;99.90
28767;DHT22;15921;52.034;20.650;2023-08-07T00:39:07;15.10;99.90
28767;DHT22;15921;52.034;20.650;2023-08-07T00:41:33;15.10;99.90
28767;DHT22;15921;52.034;20.650;2023-08-07T00:43:59;15.10;99.90
28767;DHT22;15921;52.034;20.650;2023-08-07T00:46:26;15.10;99.90
28767;DHT22;15921;52.034;20.650;2023-08-07T00:48:53;15.10;99.90
28767;DHT22;15921;52.034;20.650;2023-08-07T00:51:20;15.00;99.90
28767;DHT22;15921;52.034;20.650;2023-08-07T00:53:47;15.00;99.90
28767;DHT22;15921;52.034;20.650;2023-08-07T00:56:13;15.00;99.90
28767;DHT22;15921;52.034;20.650;2023-08-07T00:58:40;15.00;99.90
28767;DHT22;15921;52.034;20.650;2023-08-07T01:01:06;14.90;99.90
28767;DHT22;15921;52.034;20.650;2023-08-07T01:03:32;14.90;99.90
28767;DHT22;15921;52.034;20.650;2023-08-07T01:05:57;14.90;99.90
28767;DHT22;15921;52.034;20.650;2023-08-07T01:08:24;14.90;99.90
28767;DHT22;15921;52.034;20.650;2023-08-07T01:16:18;14.90;99.90
28767;DHT22;15921;52.034;20.650;2023-08-07T01:18:47;14.90;99.90
28767;DHT22;15921;52.034;20.650;2023-08-07T01:21:18;14.90;99.90
28767;DHT22;15921;52.034;20.650;2023-08-07T01:23:48;14.90;99.90
28767;DHT22;15921;52.034;20.650;2023-08-07T01:26:15;14.90;99.90
28767;DHT22;15921;52.034;20.650;2023-08-07T01:28:50;14.90;99.90
28767;DHT22;15921;52.034;20.650;2023-08-07T01:31:20;14.90;99.90
28767;DHT22;15921;52.034;20.650;2023-08-07T01:33:54;14.90;99.90
28767;DHT22;15921;52.034;20.650;2023-08-07T01:36:24;14.90;99.90
28767;DHT22;15921;52.034;20.650;2023-08-07T01:38:52;14.90;99.90
28767;DHT22;15921;52.034;20.650;2023-08-07T01:41:19;14.80;99.90
28767;DHT22;15921;52.034;20.650;2023-08-07T01:43:45;14.80;99.90
28767;DHT22;15921;52.034;20.650;2023-08-07T01:46:11;14.80;99.90
28767;DHT22;15921;52.034;20.650;2023-08-07T01:48:36;14.80;99.90
28767;DHT22;15921;52.034;20.650;2023-08-07T01:51:02;14.90;99.90
28767;DHT22;15921;52.034;20.650;2023-08-07T01:53:28;14.90;99.90
28767;DHT22;15921;52.034;20.650;2023-08-07T01:55:53;14.90;99.90
28767;DHT22;15921;52.034;20.650;2023-08-07T01:58:19;14.90;99.90
28767;DHT22;15921;52.034;20.650;2023-08-07T02:00:45;14.90;99.90
28767;DHT22;15921;52.034;20.650;2023-08-07T02:03:10;14.90;99.90
28767;DHT22;15921;52.034;20.650;2023-08-07T02:05:36;14.90;99.90
28767;DHT22;15921;52.034;20.650;2023-08-07T02:08:02;14.90;99.90
28767;DHT22;15921;52.034;20.650;2023-08-07T02:10:27;14.90;99.90
28767;DHT22;15921;52.034;20.650;2023-08-07T02:12:53;14.90;99.90
28767;DHT22;15921;52.034;20.650;2023-08-07T02:15:19;14.90;99.90
28767;DHT22;15921;52.034;20.650;2023-08-07T02:17:45;14.90;99.90
28767;DHT22;15921;52.034;20.650;2023-08-07T02:20:11;14.90;99.90
28767;DHT22;15921;52.034;20.650;2023-08-07T02:22:36;14.90;99.90
28767;DHT22;15921;52.034;20.650;2023-08-07T02:25:02;14.90;99.90
28767;DHT22;15921;52.034;20.650;2023-08-07T02:27:28;14.90;99.90
28767;DHT22;15921;52.034;20.650;2023-08-07T02:29:53;14.80;99.90
28767;DHT22;15921;52.034;20.650;2023-08-07T02:32:19;14.80;99.90
28767;DHT22;15921;52.034;20.650;2023-08-07T02:34:45;14.90;99.90
28767;DHT22;15921;52.034;20.650;2023-08-07T02:37:11;14.80;99.90
28767;DHT22;15921;52.034;20.650;2023-08-07T02:39:37;14.80;99.90
28767;DHT22;15921;52.034;20.650;2023-08-07T02:42:02;14.80;99.90
28767;DHT22;15921;52.034;20.650;2023-08-07T02:44:28;14.80;99.90
28767;DHT22;15921;52.034;20.650;2023-08-07T02:46:54;14.80;99.90
28767;DHT22;15921;52.034;20.650;2023-08-07T02:49:20;14.80;99.90
28767;DHT22;15921;52.034;20.650;2023-08-07T02:51:45;14.80;99.90
28767;DHT22;15921;52.034;20.650;2023-08-07T02:54:11;14.80;99.90
28767;DHT22;15921;52.034;20.650;2023-08-07T02:56:37;14.80;99.90
28767;DHT22;15921;52.034;20.650;2023-08-07T02:59:02;14.80;99.90
28767;DHT22;15921;52.034;20.650;2023-08-07T03:01:28;14.80;99.90
28767;DHT22;15921;52.034;20.650;2023-08-07T03:03:55;14.80;99.90
28767;DHT22;15921;52.034;20.650;2023-08-07T03:06:20;14.80;99.90
28767;DHT22;15921;52.034;20.650;2023-08-07T03:08:46;14.80;99.90
28767;DHT22;15921;52.034;20.650;2023-08-07T03:11:11;14.80;99.90
28767;DHT22;15921;52.034;20.650;2023-08-07T03:13:37;14.80;99.90
28767;DHT22;15921;52.034;20.650;2023-08-07T03:16:04;14.90;99.90
28767;DHT22;15921;52.034;20.650;2023-08-07T03:18:31;14.90;99.90
28767;DHT22;15921;52.034;20.650;2023-08-07T03:20:57;14.90;99.90
28767;DHT22;15921;52.034;20.650;2023-08-07T03:23:23;14.90;99.90
28767;DHT22;15921;52.034;20.650;2023-08-07T03:25:49;15.00;99.90
28767;DHT22;15921;52.034;20.650;2023-08-07T03:28:16;15.00;99.90
28767;DHT22;15921;52.034;20.650;2023-08-07T03:30:41;15.00;99.90
28767;DHT22;15921;52.034;20.650;2023-08-07T03:33:08;15.00;99.90
28767;DHT22;15921;52.034;20.650;2023-08-07T03:35:33;15.00;99.90
28767;DHT22;15921;52.034;20.650;2023-08-07T03:37:59;15.00;99.90
28767;DHT22;15921;52.034;20.650;2023-08-07T03:40:24;15.00;99.90
28767;DHT22;15921;52.034;20.650;2023-08-07T03:42:50;15.10;99.90
28767;DHT22;15921;52.034;20.650;2023-08-07T03:45:16;15.10;99.90
28767;DHT22;15921;52.034;20.650;2023-08-07T03:47:42;15.10;99.90
28767;DHT22;15921;52.034;20.650;2023-08-07T03:50:07;15.10;99.90
28767;DHT22;15921;52.034;20.650;2023-08-07T03:52:33;15.20;99.90
28767;DHT22;15921;52.034;20.650;2023-08-07T03:54:59;15.20;99.90
28767;DHT22;15921;52.034;20.650;2023-08-07T03:57:25;15.20;99.90
28767;DHT22;15921;52.034;20.650;2023-08-07T03:59:50;15.20;99.90
28767;DHT22;15921;52.034;20.650;2023-08-07T04:02:16;15.30;99.90
28767;DHT22;15921;52.034;20.650;2023-08-07T04:04:42;15.30;99.90
28767;DHT22;15921;52.034;20.650;2023-08-07T04:07:07;15.20;99.90
28767;DHT22;15921;52.034;20.650;2023-08-07T04:09:33;15.30;99.90
28767;DHT22;15921;52.034;20.650;2023-08-07T04:11:59;15.30;99.90
28767;DHT22;15921;52.034;20.650;2023-08-07T04:14:24;15.30;99.90
28767;DHT22;15921;52.034;20.650;2023-08-07T04:16:51;15.30;99.90
28767;DHT22;15921;52.034;20.650;2023-08-07T04:19:16;15.40;99.90
28767;DHT22;15921;52.034;20.650;2023-08-07T04:21:42;15.40;99.90
28767;DHT22;15921;52.034;20.650;2023-08-07T04:24:08;15.40;99.90
28767;DHT22;15921;52.034;20.650;2023-08-07T04:26:37;15.40;99.90
28767;DHT22;15921;52.034;20.650;2023-08-07T04:29:03;15.40;99.90
28767;DHT22;15921;52.034;20.650;2023-08-07T04:31:29;15.40;99.90
28767;DHT22;15921;52.034;20.650;2023-08-07T04:33:57;15.40;99.90
28767;DHT22;15921;52.034;20.650;2023-08-07T04:36:23;15.40;99.90
28767;DHT22;15921;52.034;20.650;2023-08-07T04:38:49;15.50;99.90
28767;DHT22;15921;52.034;20.650;2023-08-07T04:41:15;15.50;99.90
28767;DHT22;15921;52.034;20.650;2023-08-07T04:43:41;15.60;99.90
28767;DHT22;15921;52.034;20.650;2023-08-07T04:46:09;15.50;99.90
28767;DHT22;15921;52.034;20.650;2023-08-07T04:48:38;15.60;99.90
28767;DHT22;15921;52.034;20.650;2023-08-07T04:51:03;15.70;99.90
28767;DHT22;15921;52.034;20.650;2023-08-07T04:53:29;15.70;99.90
28767;DHT22;15921;52.034;20.650;2023-08-07T04:55:55;15.70;99.90
28767;DHT22;15921;52.034;20.650;2023-08-07T04:58:21;15.60;99.90
28767;DHT22;15921;52.034;20.650;2023-08-07T05:00:46;15.60;99.90
28767;DHT22;15921;52.034;20.650;2023-08-07T05:03:12;15.60;99.90
28767;DHT22;15921;52.034;20.650;2023-08-07T05:05:38;15.50;99.90
28767;DHT22;15921;52.034;20.650;2023-08-07T05:08:04;15.40;99.90
28767;DHT22;15921;52.034;20.650;2023-08-07T05:10:29;15.30;99.90
28767;DHT22;15921;52.034;20.650;2023-08-07T05:12:55;15.40;99.90
28767;DHT22;15921;52.034;20.650;2023-08-07T05:15:24;15.50;99.90
28767;DHT22;15921;52.034;20.650;2023-08-07T05:17:50;15.70;99.90
28767;DHT22;15921;52.034;20.650;2023-08-07T05:20:16;15.90;99.90
28767;DHT22;15921;52.034;20.650;2023-08-07T05:22:43;16.00;99.90
28767;DHT22;15921;52.034;20.650;2023-08-07T05:25:09;16.20;99.90
28767;DHT22;15921;52.034;20.650;2023-08-07T05:27:35;16.50;99.90
28767;DHT22;15921;52.034;20.650;2023-08-07T05:30:01;16.60;99.90
28767;DHT22;15921;52.034;20.650;2023-08-07T05:32:26;16.60;99.90
28767;DHT22;15921;52.034;20.650;2023-08-07T05:34:52;16.70;99.90
28767;DHT22;15921;52.034;20.650;2023-08-07T05:37:18;16.80;99.90
28767;DHT22;15921;52.034;20.650;2023-08-07T05:39:43;16.70;99.90
28767;DHT22;15921;52.034;20.650;2023-08-07T06:02:57;16.40;99.90
28767;DHT22;15921;52.034;20.650;2023-08-07T06:05:24;16.50;99.90
28767;DHT22;15921;52.034;20.650;2023-08-07T06:07:50;16.60;99.90
28767;DHT22;15921;52.034;20.650;2023-08-07T06:10:15;16.90;99.90
28767;DHT22;15921;52.034;20.650;2023-08-07T06:12:41;17.10;99.90
28767;DHT22;15921;52.034;20.650;2023-08-07T06:15:07;17.30;99.90
28767;DHT22;15921;52.034;20.650;2023-08-07T06:17:34;17.40;99.90
28767;DHT22;15921;52.034;20.650;2023-08-07T06:20:00;17.60;99.90
28767;DHT22;15921;52.034;20.650;2023-08-07T06:22:25;17.80;99.90
28767;DHT22;15921;52.034;20.650;2023-08-07T06:24:51;17.90;99.90
28767;DHT22;15921;52.034;20.650;2023-08-07T06:27:17;18.00;99.90
28767;DHT22;15921;52.034;20.650;2023-08-07T06:29:43;18.10;99.90
28767;DHT22;15921;52.034;20.650;2023-08-07T06:32:08;18.20;99.90
28767;DHT22;15921;52.034;20.650;2023-08-07T06:34:36;18.20;99.90
28767;DHT22;15921;52.034;20.650;2023-08-07T06:37:04;18.30;99.90
28767;DHT22;15921;52.034;20.650;2023-08-07T06:39:30;18.30;99.90
28767;DHT22;15921;52.034;20.650;2023-08-07T06:41:56;18.30;99.90
28767;DHT22;15921;52.034;20.650;2023-08-07T06:44:22;18.40;99.90
28767;DHT22;15921;52.034;20.650;2023-08-07T06:46:47;18.20;99.90
28767;DHT22;15921;52.034;20.650;2023-08-07T06:49:13;18.10;99.90
28767;DHT22;15921;52.034;20.650;2023-08-07T06:51:39;18.00;99.90
28767;DHT22;15921;52.034;20.650;2023-08-07T06:54:04;17.70;99.90
28767;DHT22;15921;52.034;20.650;2023-08-07T06:56:30;17.50;99.90
28767;DHT22;15921;52.034;20.650;2023-08-07T06:58:56;17.30;99.90
28767;DHT22;15921;52.034;20.650;2023-08-07T07:01:21;17.20;99.90
28767;DHT22;15921;52.034;20.650;2023-08-07T07:03:47;17.30;99.90
28767;DHT22;15921;52.034;20.650;2023-08-07T07:06:18;17.50;99.90
28767;DHT22;15921;52.034;20.650;2023-08-07T07:08:44;17.70;99.90
28767;DHT22;15921;52.034;20.650;2023-08-07T07:11:09;18.00;99.90
28767;DHT22;15921;52.034;20.650;2023-08-07T07:13:35;18.30;99.90
28767;DHT22;15921;52.034;20.650;2023-08-07T07:16:01;18.50;99.90
28767;DHT22;15921;52.034;20.650;2023-08-07T07:18:27;18.50;99.90
28767;DHT22;15921;52.034;20.650;2023-08-07T07:20:59;18.40;99.90
28767;DHT22;15921;52.034;20.650;2023-08-07T07:23:26;18.50;99.90
28767;DHT22;15921;52.034;20.650;2023-08-07T07:25:52;18.60;99.90
28767;DHT22;15921;52.034;20.650;2023-08-07T07:28:17;18.70;99.90
28767;DHT22;15921;52.034;20.650;2023-08-07T07:30:43;18.70;99.90
28767;DHT22;15921;52.034;20.650;2023-08-07T07:33:09;18.60;99.90
28767;DHT22;15921;52.034;20.650;2023-08-07T07:35:38;18.90;99.90
28767;DHT22;15921;52.034;20.650;2023-08-07T07:38:05;19.10;99.90
28767;DHT22;15921;52.034;20.650;2023-08-07T07:40:31;19.30;99.90
28767;DHT22;15921;52.034;20.650;2023-08-07T07:42:57;19.40;99.90
28767;DHT22;15921;52.034;20.650;2023-08-07T07:45:23;19.20;99.90
28767;DHT22;15921;52.034;20.650;2023-08-07T07:47:49;19.30;99.90
28767;DHT22;15921;52.034;20.650;2023-08-07T07:50:14;19.20;99.90
28767;DHT22;15921;52.034;20.650;2023-08-07T07:52:40;18.80;99.90
28767;DHT22;15921;52.034;20.650;2023-08-07T07:55:06;18.80;99.90
28767;DHT22;15921;52.034;20.650;2023-08-07T07:57:34;19.00;99.90
28767;DHT22;15921;52.034;20.650;2023-08-07T07:59:59;19.30;99.90
28767;DHT22;15921;52.034;20.650;2023-08-07T08:02:26;19.60;99.90
28767;DHT22;15921;52.034;20.650;2023-08-07T08:04:52;19.60;99.90
28767;DHT22;15921;52.034;20.650;2023-08-07T08:07:18;19.60;99.50
28767;DHT22;15921;52.034;20.650;2023-08-07T08:09:44;19.60;99.20
28767;DHT22;15921;52.034;20.650;2023-08-07T08:12:10;19.80;99.10
28767;DHT22;15921;52.034;20.650;2023-08-07T08:14:36;19.90;98.20
28767;DHT22;15921;52.034;20.650;2023-08-07T08:17:01;20.10;97.80
28767;DHT22;15921;52.034;20.650;2023-08-07T08:19:27;20.10;97.10
28767;DHT22;15921;52.034;20.650;2023-08-07T08:21:53;20.10;96.50
28767;DHT22;15921;52.034;20.650;2023-08-07T08:24:19;20.20;96.10
28767;DHT22;15921;52.034;20.650;2023-08-07T08:26:44;20.20;95.30
28767;DHT22;15921;52.034;20.650;2023-08-07T08:29:14;20.30;95.20
28767;DHT22;15921;52.034;20.650;2023-08-07T08:31:40;20.40;95.10
28767;DHT22;15921;52.034;20.650;2023-08-07T08:34:05;20.50;95.00
28767;DHT22;15921;52.034;20.650;2023-08-07T08:36:31;20.40;94.90
28767;DHT22;15921;52.034;20.650;2023-08-07T08:38:57;20.40;94.50
28767;DHT22;15921;52.034;20.650;2023-08-07T08:41:23;20.20;94.70
28767;DHT22;15921;52.034;20.650;2023-08-07T08:43:51;20.20;94.60
28767;DHT22;15921;52.034;20.650;2023-08-07T08:46:20;20.20;94.20
28767;DHT22;15921;52.034;20.650;2023-08-07T08:48:51;20.20;93.90
28767;DHT22;15921;52.034;20.650;2023-08-07T08:51:17;20.30;93.80
28767;DHT22;15921;52.034;20.650;2023-08-07T08:53:46;20.40;93.70
28767;DHT22;15921;52.034;20.650;2023-08-07T08:56:12;20.40;93.80
28767;DHT22;15921;52.034;20.650;2023-08-07T08:58:38;20.40;93.60
28767;DHT22;15921;52.034;20.650;2023-08-07T09:01:05;20.30;93.10
28767;DHT22;15921;52.034;20.650;2023-08-07T09:03:32;20.10;93.40
28767;DHT22;15921;52.034;20.650;2023-08-07T09:05:58;19.90;93.60
28767;DHT22;15921;52.034;20.650;2023-08-07T09:08:27;20.00;93.90
28767;DHT22;15921;52.034;20.650;2023-08-07T09:10:56;20.30;93.30
28767;DHT22;15921;52.034;20.650;2023-08-07T09:13:23;20.60;93.20
28767;DHT22;15921;52.034;20.650;2023-08-07T09:15:51;20.50;91.40
28767;DHT22;15921;52.034;20.650;2023-08-07T09:18:17;20.10;91.80
28767;DHT22;15921;52.034;20.650;2023-08-07T09:20:47;19.90;92.00
28767;DHT22;15921;52.034;20.650;2023-08-07T09:23:15;20.00;92.40
28767;DHT22;15921;52.034;20.650;2023-08-07T09:25:42;20.10;92.20
28767;DHT22;15921;52.034;20.650;2023-08-07T09:28:09;20.20;92.10
28767;DHT22;15921;52.034;20.650;2023-08-07T09:30:35;20.40;92.10
28767;DHT22;15921;52.034;20.650;2023-08-07T09:33:03;20.40;91.70
28767;DHT22;15921;52.034;20.650;2023-08-07T09:35:29;20.80;91.40
28767;DHT22;15921;52.034;20.650;2023-08-07T09:37:57;21.10;90.60
28767;DHT22;15921;52.034;20.650;2023-08-07T09:40:23;21.40;90.10
28767;DHT22;15921;52.034;20.650;2023-08-07T09:42:55;21.60;90.00
28767;DHT22;15921;52.034;20.650;2023-08-07T09:45:22;21.70;88.40
28767;DHT22;15921;52.034;20.650;2023-08-07T09:48:14;21.80;85.00
28767;DHT22;15921;52.034;20.650;2023-08-07T09:50:41;21.80;83.60
28767;DHT22;15921;52.034;20.650;2023-08-07T09:53:06;22.00;84.50
28767;DHT22;15921;52.034;20.650;2023-08-07T09:55:32;22.10;83.80
28767;DHT22;15921;52.034;20.650;2023-08-07T09:58:00;22.20;83.40
28767;DHT22;15921;52.034;20.650;2023-08-07T10:00:26;22.10;83.00
28767;DHT22;15921;52.034;20.650;2023-08-07T10:02:53;21.90;83.30
28767;DHT22;15921;52.034;20.650;2023-08-07T10:05:19;21.70;84.40
28767;DHT22;15921;52.034;20.650;2023-08-07T10:07:45;21.80;85.40
28767;DHT22;15921;52.034;20.650;2023-08-07T10:10:12;22.00;84.30
28767;DHT22;15921;52.034;20.650;2023-08-07T10:12:38;22.10;83.80
28767;DHT22;15921;52.034;20.650;2023-08-07T10:15:04;22.10;82.10
28767;DHT22;15921;52.034;20.650;2023-08-07T10:17:32;22.20;80.30
28767;DHT22;15921;52.034;20.650;2023-08-07T10:19:58;22.10;78.20
28767;DHT22;15921;52.034;20.650;2023-08-07T10:22:25;22.00;80.10
28767;DHT22;15921;52.034;20.650;2023-08-07T10:24:54;22.10;80.60
28767;DHT22;15921;52.034;20.650;2023-08-07T10:27:23;22.30;79.30
28767;DHT22;15921;52.034;20.650;2023-08-07T10:29:52;22.50;78.20
28767;DHT22;15921;52.034;20.650;2023-08-07T10:32:20;22.70;77.90
28767;DHT22;15921;52.034;20.650;2023-08-07T10:34:49;23.10;77.50
28767;DHT22;15921;52.034;20.650;2023-08-07T10:37:41;23.40;76.80
28767;DHT22;15921;52.034;20.650;2023-08-07T10:40:08;23.50;76.40
28767;DHT22;15921;52.034;20.650;2023-08-07T10:42:56;23.10;75.80
28767;DHT22;15921;52.034;20.650;2023-08-07T10:45:26;22.80;75.90
28767;DHT22;15921;52.034;20.650;2023-08-07T10:50:29;22.00;77.60
28767;DHT22;15921;52.034;20.650;2023-08-07T10:52:55;21.60;77.30
28767;DHT22;15921;52.034;20.650;2023-08-07T10:55:21;21.30;78.20
28767;DHT22;15921;52.034;20.650;2023-08-07T10:57:48;21.20;78.20
28767;DHT22;15921;52.034;20.650;2023-08-07T11:00:14;21.30;78.70
28767;DHT22;15921;52.034;20.650;2023-08-07T11:02:42;21.50;78.60
28767;DHT22;15921;52.034;20.650;2023-08-07T11:05:08;21.50;78.40
28767;DHT22;15921;52.034;20.650;2023-08-07T11:07:34;21.40;78.10
28767;DHT22;15921;52.034;20.650;2023-08-07T11:09:59;21.30;77.80
28767;DHT22;15921;52.034;20.650;2023-08-07T11:12:26;21.20;78.10
28767;DHT22;15921;52.034;20.650;2023-08-07T11:14:54;21.10;78.80
28767;DHT22;15921;52.034;20.650;2023-08-07T11:17:29;21.30;78.30
28767;DHT22;15921;52.034;20.650;2023-08-07T11:19:55;21.50;78.30
28767;DHT22;15921;52.034;20.650;2023-08-07T11:22:21;22.00;78.20
28767;DHT22;15921;52.034;20.650;2023-08-07T11:24:47;22.60;76.70
28767;DHT22;15921;52.034;20.650;2023-08-07T11:27:13;22.90;75.10
28767;DHT22;15921;52.034;20.650;2023-08-07T11:29:38;23.30;74.90
28767;DHT22;15921;52.034;20.650;2023-08-07T11:32:05;23.50;73.00
28767;DHT22;15921;52.034;20.650;2023-08-07T11:34:31;23.80;72.10
28767;DHT22;15921;52.034;20.650;2023-08-07T11:36:57;23.90;71.00
28767;DHT22;15921;52.034;20.650;2023-08-07T11:39:23;23.70;71.00
28767;DHT22;15921;52.034;20.650;2023-08-07T11:41:53;23.40;70.70
28767;DHT22;15921;52.034;20.650;2023-08-07T11:44:20;22.90;70.30
28767;DHT22;15921;52.034;20.650;2023-08-07T11:46:46;22.60;71.80
28767;DHT22;15921;52.034;20.650;2023-08-07T11:49:12;22.40;72.10
28767;DHT22;15921;52.034;20.650;2023-08-07T11:51:38;22.30;72.70
28767;DHT22;15921;52.034;20.650;2023-08-07T11:54:04;22.60;70.20
28767;DHT22;15921;52.034;20.650;2023-08-07T11:56:30;22.70;70.00
28767;DHT22;15921;52.034;20.650;2023-08-07T11:58:57;22.70;70.30
28767;DHT22;15921;52.034;20.650;2023-08-07T12:01:25;23.00;70.30
28767;DHT22;15921;52.034;20.650;2023-08-07T12:04:11;23.30;69.80
28767;DHT22;15921;52.034;20.650;2023-08-07T12:06:37;23.80;67.30
28767;DHT22;15921;52.034;20.650;2023-08-07T12:09:07;24.30;68.00
28767;DHT22;15921;52.034;20.650;2023-08-07T12:11:38;24.30;66.00
28767;DHT22;15921;52.034;20.650;2023-08-07T12:14:04;24.90;65.20
28767;DHT22;15921;52.034;20.650;2023-08-07T12:16:34;25.30;63.70
28767;DHT22;15921;52.034;20.650;2023-08-07T12:19:00;24.80;64.00
28767;DHT22;15921;52.034;20.650;2023-08-07T12:21:27;24.00;64.70
28767;DHT22;15921;52.034;20.650;2023-08-07T12:23:56;23.50;66.10
28767;DHT22;15921;52.034;20.650;2023-08-07T12:26:22;24.10;66.10
28767;DHT22;15921;52.034;20.650;2023-08-07T12:28:48;24.00;66.00
28767;DHT22;15921;52.034;20.650;2023-08-07T12:31:14;24.70;65.60
28767;DHT22;15921;52.034;20.650;2023-08-07T12:33:40;24.50;65.40
28767;DHT22;15921;52.034;20.650;2023-08-07T12:36:05;24.10;66.90
28767;DHT22;15921;52.034;20.650;2023-08-07T12:38:32;23.70;66.70
28767;DHT22;15921;52.034;20.650;2023-08-07T12:40:57;23.30;68.20
28767;DHT22;15921;52.034;20.650;2023-08-07T12:43:25;23.00;68.10
28767;DHT22;15921;52.034;20.650;2023-08-07T12:45:50;22.90;68.70
28767;DHT22;15921;52.034;20.650;2023-08-07T12:48:18;23.70;67.90
28767;DHT22;15921;52.034;20.650;2023-08-07T12:50:44;25.90;64.80
28767;DHT22;15921;52.034;20.650;2023-08-07T12:53:10;29.20;58.60
28767;DHT22;15921;52.034;20.650;2023-08-07T12:55:35;29.60;55.50
28767;DHT22;15921;52.034;20.650;2023-08-07T12:58:01;28.20;56.90
28767;DHT22;15921;52.034;20.650;2023-08-07T13:00:27;26.60;58.00
28767;DHT22;15921;52.034;20.650;2023-08-07T13:02:53;25.30;59.80
28767;DHT22;15921;52.034;20.650;2023-08-07T13:05:21;24.20;63.20
28767;DHT22;15921;52.034;20.650;2023-08-07T13:07:47;23.20;65.50
28767;DHT22;15921;52.034;20.650;2023-08-07T13:10:15;22.50;67.50
28767;DHT22;15921;52.034;20.650;2023-08-07T13:12:43;22.10;69.20
28767;DHT22;15921;52.034;20.650;2023-08-07T13:15:13;22.00;70.30
28767;DHT22;15921;52.034;20.650;2023-08-07T13:17:40;22.00;70.50
28767;DHT22;15921;52.034;20.650;2023-08-07T13:20:06;24.00;68.40
28767;DHT22;15921;52.034;20.650;2023-08-07T13:22:39;26.80;61.10
28767;DHT22;15921;52.034;20.650;2023-08-07T13:25:07;26.20;60.80
28767;DHT22;15921;52.034;20.650;2023-08-07T13:27:34;25.10;62.20
28767;DHT22;15921;52.034;20.650;2023-08-07T13:30:00;24.00;64.80
28767;DHT22;15921;52.034;20.650;2023-08-07T13:32:26;23.10;66.90
28767;DHT22;15921;52.034;20.650;2023-08-07T13:34:52;22.40;69.00
28767;DHT22;15921;52.034;20.650;2023-08-07T13:37:18;21.90;70.20
28767;DHT22;15921;52.034;20.650;2023-08-07T13:39:44;21.40;71.60
28767;DHT22;15921;52.034;20.650;2023-08-07T13:42:10;21.10;73.00
28767;DHT22;15921;52.034;20.650;2023-08-07T13:44:36;20.80;73.80
28767;DHT22;15921;52.034;20.650;2023-08-07T13:47:03;20.70;74.90
28767;DHT22;15921;52.034;20.650;2023-08-07T13:49:29;20.70;75.40
28767;DHT22;15921;52.034;20.650;2023-08-07T13:51:55;20.60;75.70
28767;DHT22;15921;52.034;20.650;2023-08-07T13:54:21;20.60;76.20
28767;DHT22;15921;52.034;20.650;2023-08-07T13:56:47;20.60;76.70
28767;DHT22;15921;52.034;20.650;2023-08-07T13:59:13;20.50;77.30
28767;DHT22;15921;52.034;20.650;2023-08-07T14:01:39;20.50;77.50
28767;DHT22;15921;52.034;20.650;2023-08-07T14:04:05;20.50;77.20
28767;DHT22;15921;52.034;20.650;2023-08-07T14:06:30;20.30;77.50
28767;DHT22;15921;52.034;20.650;2023-08-07T14:08:56;20.30;77.60
28767;DHT22;15921;52.034;20.650;2023-08-07T14:11:22;20.20;77.70
28767;DHT22;15921;52.034;20.650;2023-08-07T14:13:50;20.20;77.80
28767;DHT22;15921;52.034;20.650;2023-08-07T14:16:15;20.20;77.70
28767;DHT22;15921;52.034;20.650;2023-08-07T14:18:41;20.40;77.70
28767;DHT22;15921;52.034;20.650;2023-08-07T14:21:07;20.40;77.80
28767;DHT22;15921;52.034;20.650;2023-08-07T14:23:33;20.40;77.70
28767;DHT22;15921;52.034;20.650;2023-08-07T14:25:58;20.30;78.20
28767;DHT22;15921;52.034;20.650;2023-08-07T14:28:24;20.40;78.30
28767;DHT22;15921;52.034;20.650;2023-08-07T14:30:51;20.40;78.10
28767;DHT22;15921;52.034;20.650;2023-08-07T14:33:16;20.40;77.90
28767;DHT22;15921;52.034;20.650;2023-08-07T14:35:42;20.70;78.20
28767;DHT22;15921;52.034;20.650;2023-08-07T14:38:08;21.40;76.20
28767;DHT22;15921;52.034;20.650;2023-08-07T14:40:33;21.80;74.70
28767;DHT22;15921;52.034;20.650;2023-08-07T14:42:59;22.10;74.20
28767;DHT22;15921;52.034;20.650;2023-08-07T14:45:25;23.00;72.60
28767;DHT22;15921;52.034;20.650;2023-08-07T14:47:50;25.80;67.20
28767;DHT22;15921;52.034;20.650;2023-08-07T14:50:16;28.00;61.40
28767;DHT22;15921;52.034;20.650;2023-08-07T14:52:42;30.50;57.80
28767;DHT22;15921;52.034;20.650;2023-08-07T14:55:08;32.60;53.10
28767;DHT22;15921;52.034;20.650;2023-08-07T14:57:34;34.30;48.90
28767;DHT22;15921;52.034;20.650;2023-08-07T15:00:00;33.40;47.70
28767;DHT22;15921;52.034;20.650;2023-08-07T15:02:26;32.40;49.00
28767;DHT22;15921;52.034;20.650;2023-08-07T15:04:51;31.60;49.20
28767;DHT22;15921;52.034;20.650;2023-08-07T15:07:17;29.30;49.90
28767;DHT22;15921;52.034;20.650;2023-08-07T15:09:43;27.10;52.90
28767;DHT22;15921;52.034;20.650;2023-08-07T15:12:09;25.90;55.20
28767;DHT22;15921;52.034;20.650;2023-08-07T15:14:35;25.10;56.70
28767;DHT22;15921;52.034;20.650;2023-08-07T15:17:01;24.60;57.20
28767;DHT22;15921;52.034;20.650;2023-08-07T15:19:27;24.00;58.40
28767;DHT22;15921;52.034;20.650;2023-08-07T15:21:52;23.40;59.10
28767;DHT22;15921;52.034;20.650;2023-08-07T15:24:18;22.80;60.60
28767;DHT22;15921;52.034;20.650;2023-08-07T15:26:45;22.50;62.20
28767;DHT22;15921;52.034;20.650;2023-08-07T15:29:11;22.10;62.90
28767;DHT22;15921;52.034;20.650;2023-08-07T15:31:36;22.10;63.90
28767;DHT22;15921;52.034;20.650;2023-08-07T15:34:02;22.20;63.80
28767;DHT22;15921;52.034;20.650;2023-08-07T15:36:28;25.20;60.00
28767;DHT22;15921;52.034;20.650;2023-08-07T15:38:54;28.70;54.20